Station History

Weather Underground - logo

Station Historical Data
Daily Summary for March 7, 2018 Units:  Metric    English   Both
« Previous Day
Next Day »
Daily Weekly Monthly Yearly Custom
  High: Low: Average:
Temperature: 22.2 °C 7.4 °C 12.8 °C
Dew Point: 8.7 °C 4.6 °C 6.3 °C
Humidity: 89 % 32 % 68 %
Wind Speed: 9.3 km/h 0 km/h 0.8 km/h
Wind Gust: 9.3 km/h - -
Wind:- - WSW
Pressure: 1019.2 hPa 1015.1 hPa -
Precipitation: 0 mm    
Historical Graphs
 
 
Tabular Data for March 7, 2018
Time Temperature Dew Point Pressure Wind Wind Speed Wind Gust Humidity Rainfall Rate (Hourly)
00:00 7.8 °C 5.6 °C 1018.2 hPa SE 1.9 km/h 1.9 km/h 86 % 0 mm
00:05 7.8 °C 5.6 °C 1018.5 hPa Calm     86 % 0 mm
00:10 7.7 °C 5.7 °C 1018.5 hPa Calm     87 % 0 mm
00:15 7.7 °C 5.7 °C 1018.5 hPa Calm     87 % 0 mm
00:20 7.7 °C 5.7 °C 1018.5 hPa Calm     87 % 0 mm
00:25 7.7 °C 5.7 °C 1018.2 hPa Calm     87 % 0 mm
00:30 7.7 °C 5.7 °C 1018.2 hPa Calm     87 % 0 mm
00:35 7.7 °C 5.7 °C 1018.2 hPa Calm     87 % 0 mm
00:40 7.7 °C 5.5 °C 1018.2 hPa SE 1.9 km/h   86 % 0 mm
00:45 7.7 °C 5.5 °C 1018.2 hPa Calm     86 % 0 mm
00:50 7.7 °C 5.5 °C 1018.2 hPa Calm     86 % 0 mm
00:55 7.6 °C 5.4 °C 1017.8 hPa Calm     86 % 0 mm
01:00 7.5 °C 5.3 °C 1017.8 hPa Calm     86 % 0 mm
01:05 7.5 °C 5.3 °C 1017.8 hPa Calm     86 % 0 mm
01:10 7.5 °C 5.2 °C 1018.2 hPa Calm   0.2 km/h 85 % 0 mm
01:15 7.6 °C 5.2 °C 1018.2 hPa Calm     85 % 0 mm
01:20 7.6 °C 5.1 °C 1018.2 hPa Calm     84 % 0 mm
01:25 7.6 °C 5 °C 1018.2 hPa Calm     84 % 0 mm
01:30 7.5 °C 5.2 °C 1018.2 hPa Calm     85 % 0 mm
01:36 7.5 °C 5.2 °C 1018.2 hPa Calm     85 % 0 mm
01:41 7.6 °C 5.2 °C 1018.2 hPa Calm     85 % 0 mm
01:46 7.7 °C 5.2 °C 1018.2 hPa Calm     84 % 0 mm
01:51 7.7 °C 5.3 °C 1018.2 hPa Calm     85 % 0 mm
01:56 7.8 °C 5.3 °C 1017.8 hPa SE 1.9 km/h 1.9 km/h 84 % 0 mm
02:01 7.9 °C 5.4 °C 1017.8 hPa SE 1.9 km/h 1.9 km/h 84 % 0 mm
02:06 8 °C 5.3 °C 1017.8 hPa ESE 9.3 km/h 9.3 km/h 83 % 0 mm
02:11 8 °C 5.3 °C 1017.5 hPa Calm     83 % 0 mm
02:16 8 °C 5.4 °C 1017.8 hPa Calm     84 % 0 mm
02:21 8 °C 5.4 °C 1017.8 hPa Calm     84 % 0 mm
02:26 7.9 °C 5.4 °C 1017.5 hPa Calm     84 % 0 mm
02:31 7.9 °C 5.3 °C 1017.5 hPa Calm     84 % 0 mm
02:36 8.1 °C 5.5 °C 1017.5 hPa Calm     84 % 0 mm
02:41 8.2 °C 5.7 °C 1017.5 hPa Calm     84 % 0 mm
02:46 8.2 °C 5.7 °C 1017.5 hPa Calm     84 % 0 mm
02:51 8.3 °C 5.7 °C 1017.5 hPa Calm     84 % 0 mm
02:56 8.3 °C 5.7 °C 1017.2 hPa Calm     84 % 0 mm
03:01 8.5 °C 5.8 °C 1017.5 hPa Calm     83 % 0 mm
03:06 8.7 °C 5.8 °C 1017.5 hPa Calm     82 % 0 mm
03:11 8.9 °C 6 °C 1017.5 hPa Calm     82 % 0 mm
03:16 9.1 °C 5.9 °C 1017.2 hPa Calm     81 % 0 mm
03:21 9.1 °C 5.8 °C 1017.2 hPa Calm     80 % 0 mm
03:26 9.1 °C 5.8 °C 1017.2 hPa Calm     80 % 0 mm
03:31 9.1 °C 5.8 °C 1017.2 hPa Calm     80 % 0 mm
03:36 9.1 °C 5.8 °C 1017.2 hPa Calm     80 % 0 mm
03:41 9.1 °C 5.8 °C 1017.2 hPa Calm     80 % 0 mm
03:46 9.3 °C 5.8 °C 1016.8 hPa Calm     79 % 0 mm
03:47 9.3 °C 5.8 °C 1016.8 hPa Calm     79 % 0 mm
03:52 9.4 °C 5.8 °C 1016.8 hPa ESE 1.9 km/h 1.9 km/h 78 % 0 mm
03:57 9.7 °C 5.6 °C 1016.8 hPa NW 1.9 km/h 1.9 km/h 76 % 0 mm
04:02 9.9 °C 5.7 °C 1016.8 hPa Calm     75 % 0 mm
04:07 10.2 °C 5.6 °C 1017.2 hPa NNW 1.9 km/h 1.9 km/h 73 % 0 mm
04:12 10.4 °C 5.6 °C 1017.2 hPa NNW 1.6 km/h 1.6 km/h 72 % 0 mm
04:17 10.4 °C 5.8 °C 1017.2 hPa Calm     73 % 0 mm
04:22 10.3 °C 5.7 °C 1017.2 hPa Calm     73 % 0 mm
04:27 10.1 °C 5.7 °C 1016.8 hPa Calm     74 % 0 mm
04:32 10.1 °C 5.5 °C 1017.2 hPa NW 1.9 km/h   73 % 0 mm
04:37 10.2 °C 5.3 °C 1017.2 hPa Calm     72 % 0 mm
04:42 10.2 °C 5.2 °C 1016.8 hPa Calm     71 % 0 mm
04:47 10.2 °C 5.2 °C 1016.8 hPa NW 1.9 km/h   71 % 0 mm
04:52 10.2 °C 5.2 °C 1016.8 hPa NNW 1.9 km/h   71 % 0 mm
04:57 10.2 °C 5.2 °C 1016.8 hPa Calm   0.2 km/h 71 % 0 mm
05:02 10.2 °C 5.2 °C 1016.8 hPa WNW 1.9 km/h   71 % 0 mm
05:07 10.2 °C 5.6 °C 1016.8 hPa Calm     73 % 0 mm
05:12 9.9 °C 5.8 °C 1016.8 hPa Calm     76 % 0 mm
05:17 9.4 °C 5.6 °C 1016.8 hPa Calm     77 % 0 mm
05:22 9 °C 5.7 °C 1017.2 hPa Calm     80 % 0 mm
05:27 8.6 °C 5.7 °C 1017.5 hPa Calm     82 % 0 mm
05:32 8.4 °C 6 °C 1017.5 hPa Calm     85 % 0 mm
05:37 8.3 °C 6.2 °C 1017.5 hPa Calm     87 % 0 mm
05:42 8.1 °C 5.8 °C 1017.8 hPa Calm     86 % 0 mm
05:47 7.9 °C 5.8 °C 1017.8 hPa Calm     87 % 0 mm
05:52 7.8 °C 5.8 °C 1017.8 hPa Calm     87 % 0 mm
05:57 7.8 °C 5.7 °C 1017.8 hPa Calm   0.2 km/h 87 % 0 mm
06:02 7.8 °C 5.9 °C 1017.8 hPa Calm     88 % 0 mm
06:07 7.6 °C 5.7 °C 1018.2 hPa SE 1.9 km/h 1.9 km/h 88 % 0 mm
06:12 7.5 °C 5.8 °C 1018.2 hPa SE 1.9 km/h   89 % 0 mm
06:17 7.5 °C 5.8 °C 1018.2 hPa Calm     89 % 0 mm
06:22 7.4 °C 5.7 °C 1018.2 hPa Calm     89 % 0 mm
06:27 7.5 °C 5.8 °C 1018.2 hPa Calm     89 % 0 mm
06:32 7.5 °C 5.8 °C 1018.2 hPa SSE 1.9 km/h 1.9 km/h 89 % 0 mm
06:37 7.6 °C 5.8 °C 1018.5 hPa Calm     89 % 0 mm
06:42 7.6 °C 5.9 °C 1018.5 hPa Calm     89 % 0 mm
06:47 7.7 °C 5.8 °C 1018.5 hPa Calm     88 % 0 mm
06:52 7.7 °C 5.8 °C 1018.8 hPa Calm     88 % 0 mm
06:57 7.8 °C 5.9 °C 1018.8 hPa Calm     88 % 0 mm
07:02 7.9 °C 5.8 °C 1018.8 hPa Calm     87 % 0 mm
07:08 8 °C 5.9 °C 1018.8 hPa Calm     87 % 0 mm
07:13 8.1 °C 6 °C 1019.2 hPa Calm     87 % 0 mm
07:18 8.1 °C 6.1 °C 1019.2 hPa Calm     87 % 0 mm
07:23 8.2 °C 6.1 °C 1019.2 hPa Calm     87 % 0 mm
07:28 8.2 °C 6.2 °C 1019.2 hPa Calm     87 % 0 mm
07:33 8.3 °C 6.2 °C 1019.2 hPa Calm     87 % 0 mm
07:38 8.4 °C 6.2 °C 1019.2 hPa Calm     86 % 0 mm
07:43 8.6 °C 6.3 °C 1019.2 hPa Calm     86 % 0 mm
07:48 8.6 °C 6.4 °C 1018.8 hPa Calm     86 % 0 mm
07:53 8.7 °C 6.4 °C 1018.8 hPa SE 1.9 km/h   86 % 0 mm
07:58 8.8 °C 6.4 °C 1018.8 hPa Calm     85 % 0 mm
08:03 8.9 °C 6.6 °C 1018.8 hPa Calm     85 % 0 mm
08:08 9.1 °C 6.5 °C 1018.8 hPa Calm     84 % 0 mm
08:13 9.2 °C 6.6 °C 1018.8 hPa Calm     84 % 0 mm
08:18 9.3 °C 6.8 °C 1018.8 hPa Calm     84 % 0 mm
08:23 9.4 °C 6.9 °C 1019.2 hPa Calm     84 % 0 mm
08:28 9.6 °C 6.6 °C 1019.2 hPa Calm     82 % 0 mm
08:33 9.7 °C 6.7 °C 1019.2 hPa Calm     82 % 0 mm
08:38 9.8 °C 6.7 °C 1019.2 hPa Calm     81 % 0 mm
08:43 9.9 °C 6.4 °C 1019.2 hPa SE 1.6 km/h 1.6 km/h 79 % 0 mm
08:48 10.2 °C 6.9 °C 1019.2 hPa Calm     80 % 0 mm
08:53 10.3 °C 6.8 °C 1019.2 hPa Calm     79 % 0 mm
08:58 10.4 °C 6.6 °C 1018.8 hPa Calm     77 % 0 mm
09:03 10.6 °C 6.9 °C 1018.8 hPa Calm     78 % 0 mm
09:08 10.7 °C 6.8 °C 1018.5 hPa Calm     77 % 0 mm
09:13 10.9 °C 7 °C 1018.5 hPa Calm     77 % 0 mm
09:18 11.1 °C 6.7 °C 1017.8 hPa Calm     74 % 0 mm
09:23 11.4 °C 6.7 °C 1017.8 hPa Calm     73 % 0 mm
09:28 11.7 °C 6.8 °C 1017.8 hPa SE 3.7 km/h 3.7 km/h 72 % 0 mm
09:33 12.2 °C 7.1 °C 1018.2 hPa Calm     71 % 0 mm
09:38 12.6 °C 7 °C 1017.8 hPa NW 3.2 km/h   69 % 0 mm
09:43 12.9 °C 7.4 °C 1018.2 hPa Calm     69 % 0 mm
09:48 13.4 °C 7.6 °C 1018.5 hPa NW 3.7 km/h 3.7 km/h 68 % 0 mm
09:53 13.6 °C 7.3 °C 1018.5 hPa NNW 1.9 km/h 1.9 km/h 66 % 0 mm
09:58 13.7 °C 7.4 °C 1018.5 hPa NW 1.9 km/h 1.9 km/h 66 % 0 mm
10:03 13.8 °C 7.3 °C 1018.8 hPa North 3.7 km/h 3.7 km/h 65 % 0 mm
10:08 13.7 °C 7.7 °C 1018.8 hPa SSE 3.2 km/h 3.2 km/h 67 % 0 mm
10:13 13.5 °C 7.9 °C 1018.8 hPa Calm     69 % 0 mm
10:18 13.4 °C 8 °C 1018.8 hPa NW 1.6 km/h 1.6 km/h 70 % 0 mm
10:23 13.3 °C 8 °C 1018.8 hPa SSE 3.7 km/h 3.7 km/h 70 % 0 mm
10:28 13.3 °C 8.1 °C 1018.8 hPa Calm     71 % 0 mm
10:33 13.4 °C 8.2 °C 1018.8 hPa Calm     71 % 0 mm
10:38 13.5 °C 7.7 °C 1018.5 hPa NW 1.9 km/h   68 % 0 mm
10:43 13.4 °C 7.7 °C 1018.5 hPa Calm     68 % 0 mm
10:48 13.6 °C 7.8 °C 1018.8 hPa Calm     68 % 0 mm
10:53 13.8 °C 7.9 °C 1018.8 hPa SE 3.7 km/h 3.7 km/h 68 % 0 mm
10:58 13.9 °C 7.9 °C 1019.2 hPa ESE 1.9 km/h 1.9 km/h 67 % 0 mm
11:03 14.1 °C 8.1 °C 1019.2 hPa SE 3.7 km/h 3.7 km/h 67 % 0 mm
11:08 14.1 °C 7.8 °C 1019.2 hPa East 3.7 km/h 3.7 km/h 66 % 0 mm
11:13 14.2 °C 7.9 °C 1019.2 hPa South 3.7 km/h 3.7 km/h 66 % 0 mm
11:18 14.2 °C 7.9 °C 1019.2 hPa ESE 3.7 km/h 3.7 km/h 66 % 0 mm
11:23 14.3 °C 8 °C 1018.8 hPa SSE 1.9 km/h   66 % 0 mm
11:28 14.5 °C 8 °C 1018.8 hPa SE 1.9 km/h   65 % 0 mm
11:33 14.8 °C 8.1 °C 1018.8 hPa Calm   0.8 km/h 64 % 0 mm
11:38 15 °C 8.2 °C 1018.8 hPa SSE 3.7 km/h 3.7 km/h 64 % 0 mm
11:43 15.3 °C 8.3 °C 1018.8 hPa ENE 3.7 km/h 3.7 km/h 63 % 0 mm
11:48 15.7 °C 8.4 °C 1018.5 hPa SE 4.8 km/h 4.8 km/h 62 % 0 mm
11:53 16.2 °C 8.2 °C 1018.5 hPa SE 5.6 km/h 5.6 km/h 59 % 0 mm
11:58 16.7 °C 8.3 °C 1018.5 hPa SE 3.7 km/h 3.7 km/h 58 % 0 mm
12:03 17 °C 7.9 °C 1018.2 hPa ESE 1.9 km/h 1.9 km/h 55 % 0 mm
12:08 17.3 °C 7.4 °C 1018.2 hPa East 1.6 km/h   52 % 0 mm
12:14 17.6 °C 7.1 °C 1018.2 hPa Calm     50 % 0 mm
12:19 17.9 °C 7.4 °C 1017.8 hPa ESE 1.9 km/h 1.9 km/h 50 % 0 mm
12:24 18.2 °C 7.6 °C 1017.8 hPa Calm     50 % 0 mm
12:29 18.5 °C 7.6 °C 1017.8 hPa SSE 3.7 km/h 3.7 km/h 49 % 0 mm
12:34 18.7 °C 7.1 °C 1017.8 hPa Calm     47 % 0 mm
12:39 19 °C 6.8 °C 1017.8 hPa Calm     45 % 0 mm
12:44 19.1 °C 6.6 °C 1017.5 hPa NW 3.2 km/h 3.2 km/h 44 % 0 mm
12:49 19.1 °C 6.2 °C 1017.5 hPa NW 3.7 km/h 3.7 km/h 43 % 0 mm
12:54 19.2 °C 6.7 °C 1017.2 hPa NW 1.9 km/h 1.9 km/h 44 % 0 mm
12:59 19.3 °C 6.7 °C 1017.2 hPa WNW 1.9 km/h   44 % 0 mm
13:04 19.5 °C 5.9 °C 1016.8 hPa WNW 1.9 km/h   41 % 0 mm
13:09 19.7 °C 7.1 °C 1016.8 hPa NW 3.7 km/h 3.7 km/h 44 % 0 mm
13:14 19.9 °C 5.9 °C 1016.8 hPa NW 3.7 km/h 3.7 km/h 40 % 0 mm
13:19 20 °C 5.6 °C 1016.8 hPa NW 3.2 km/h 3.2 km/h 39 % 0 mm
13:24 20.2 °C 5.8 °C 1016.8 hPa WNW 1.9 km/h 1.9 km/h 39 % 0 mm
13:29 20.4 °C 7.4 °C 1016.8 hPa WNW 5.6 km/h 5.6 km/h 43 % 0 mm
13:34 20.7 °C 7 °C 1016.5 hPa SE 1.9 km/h   41 % 0 mm
13:39 20.9 °C 6.1 °C 1016.5 hPa Calm   0.5 km/h 38 % 0 mm
13:44 20.8 °C 5.6 °C 1016.1 hPa NW 1.9 km/h   37 % 0 mm
13:49 20.9 °C 6.1 °C 1016.1 hPa Calm     38 % 0 mm
13:54 21.1 °C 5.1 °C 1016.1 hPa Calm     35 % 0 mm
13:59 21.3 °C 5.2 °C 1015.8 hPa WNW 1.9 km/h 1.9 km/h 35 % 0 mm
14:04 21.3 °C 4.8 °C 1016.1 hPa NW 1.9 km/h 1.9 km/h 34 % 0 mm
14:10 21.2 °C 5.2 °C 1016.1 hPa NW 3.7 km/h   35 % 0 mm
14:15 21.2 °C 5.2 °C 1016.1 hPa NW 3.7 km/h 3.7 km/h 35 % 0 mm
14:20 21.3 °C 5.2 °C 1015.8 hPa NW 1.9 km/h 1.9 km/h 35 % 0 mm
14:25 21.3 °C 5.6 °C 1015.8 hPa Calm     36 % 0 mm
14:30 21.1 °C 5.4 °C 1015.8 hPa NW 3.7 km/h 3.7 km/h 36 % 0 mm
14:35 21.1 °C 5.8 °C 1015.8 hPa WNW 1.9 km/h 1.9 km/h 37 % 0 mm
14:40 21.1 °C 5 °C 1015.8 hPa NNW 1.9 km/h 1.9 km/h 35 % 0 mm
14:45 21 °C 4.9 °C 1015.8 hPa Calm     35 % 0 mm
14:50 21.1 °C 6.2 °C 1015.8 hPa NW 1.9 km/h 1.9 km/h 38 % 0 mm
14:55 21.1 °C 6.6 °C 1015.8 hPa NW 1.9 km/h   39 % 0 mm
15:00 21.4 °C 6.5 °C 1015.8 hPa NW 1.9 km/h 1.9 km/h 38 % 0 mm
15:05 21.5 °C 6.2 °C 1015.8 hPa NW 1.9 km/h   37 % 0 mm
15:10 21.6 °C 6.7 °C 1015.5 hPa NW 3.7 km/h 3.7 km/h 38 % 0 mm
15:15 21.7 °C 6 °C 1015.5 hPa NW 1.9 km/h 1.9 km/h 36 % 0 mm
15:20 21.8 °C 6.9 °C 1015.5 hPa SE 1.9 km/h   38 % 0 mm
15:25 22.1 °C 6.3 °C 1015.1 hPa NW 1.9 km/h 1.9 km/h 36 % 0 mm
15:30 22.1 °C 5.4 °C 1015.5 hPa NW 1.6 km/h 1.6 km/h 34 % 0 mm
15:35 22.1 °C 5 °C 1015.1 hPa WNW 3.7 km/h 3.7 km/h 33 % 0 mm
15:40 22.1 °C 5.1 °C 1015.1 hPa NW 1.9 km/h 1.9 km/h 33 % 0 mm
15:45 22.1 °C 5.1 °C 1015.1 hPa NW 1.9 km/h 1.9 km/h 33 % 0 mm
15:50 22.1 °C 4.6 °C 1015.1 hPa Calm     32 % 0 mm
15:55 22.1 °C 5.1 °C 1015.1 hPa NW 1.9 km/h 1.9 km/h 33 % 0 mm
16:00 22.2 °C 4.7 °C 1015.1 hPa Calm     32 % 0 mm
16:05 22.1 °C 4.6 °C 1015.1 hPa NW 1.9 km/h 1.9 km/h 32 % 0 mm
16:10 22.1 °C 4.6 °C 1015.1 hPa Calm   0.3 km/h 32 % 0 mm
16:15 22.1 °C 5.9 °C 1015.5 hPa WNW 1.9 km/h   35 % 0 mm
16:20 22.1 °C 5.1 °C 1015.5 hPa Calm     33 % 0 mm
16:25 22.1 °C 5.9 °C 1015.5 hPa Calm     35 % 0 mm
16:30 22 °C 5.8 °C 1015.5 hPa West 1.9 km/h 1.9 km/h 35 % 0 mm
16:35 21.9 °C 5.3 °C 1015.1 hPa NW 1.9 km/h 1.9 km/h 34 % 0 mm
16:40 21.8 °C 5.3 °C 1015.1 hPa NW 1.9 km/h 1.9 km/h 34 % 0 mm
16:45 21.8 °C 5.2 °C 1015.5 hPa Calm     34 % 0 mm
16:50 21.7 °C 5.2 °C 1015.5 hPa Calm     34 % 0 mm
16:55 21.6 °C 5.1 °C 1015.5 hPa NW 1.9 km/h   34 % 0 mm
17:00 21.5 °C 5.4 °C 1015.5 hPa Calm   0.2 km/h 35 % 0 mm
17:05 21.3 °C 6.1 °C 1015.5 hPa West 1.9 km/h 1.9 km/h 37 % 0 mm
17:10 21.2 °C 5.9 °C 1015.5 hPa Calm     37 % 0 mm
17:15 20.9 °C 6.1 °C 1015.5 hPa Calm     38 % 0 mm
17:20 20.7 °C 5.9 °C 1015.5 hPa Calm     38 % 0 mm
17:25 20.5 °C 6.8 °C 1015.5 hPa Calm     41 % 0 mm
17:30 20.2 °C 7.2 °C 1015.5 hPa Calm     43 % 0 mm
17:35 19.8 °C 7.2 °C 1015.5 hPa Calm     44 % 0 mm
17:40 19.4 °C 7.5 °C 1015.5 hPa Calm     46 % 0 mm
17:45 19.1 °C 7.5 °C 1015.5 hPa Calm     47 % 0 mm
17:50 18.7 °C 7.8 °C 1015.5 hPa Calm     49 % 0 mm
17:55 18.3 °C 7.7 °C 1015.5 hPa Calm     50 % 0 mm
18:00 17.8 °C 7.8 °C 1015.8 hPa Calm     52 % 0 mm
18:05 17.4 °C 8 °C 1015.8 hPa Calm     54 % 0 mm
18:10 16.9 °C 8.1 °C 1015.8 hPa Calm     56 % 0 mm
18:15 16.5 °C 8.2 °C 1015.8 hPa Calm     58 % 0 mm
18:20 16.2 °C 8.2 °C 1015.8 hPa Calm     59 % 0 mm
18:25 16.1 °C 8.1 °C 1015.8 hPa Calm     59 % 0 mm
18:30 15.8 °C 8 °C 1015.5 hPa Calm     60 % 0 mm
18:35 15.5 °C 8.7 °C 1015.8 hPa Calm     64 % 0 mm
18:41 15.4 °C 8.4 °C 1015.8 hPa Calm     63 % 0 mm
18:46 15.1 °C 7.9 °C 1015.8 hPa Calm     62 % 0 mm
18:51 14.8 °C 8.3 °C 1015.8 hPa Calm     65 % 0 mm
18:56 14.4 °C 8.2 °C 1015.8 hPa Calm     66 % 0 mm
19:01 14.1 °C 8.3 °C 1015.8 hPa Calm     68 % 0 mm
19:06 13.8 °C 7.9 °C 1015.8 hPa Calm     68 % 0 mm
19:11 13.5 °C 8.1 °C 1015.8 hPa Calm     70 % 0 mm
19:16 13.2 °C 7.9 °C 1015.8 hPa Calm     70 % 0 mm
19:21 12.9 °C 7.6 °C 1015.8 hPa Calm     70 % 0 mm
19:26 12.7 °C 7.6 °C 1016.1 hPa Calm     71 % 0 mm
19:31 12.7 °C 8 °C 1016.1 hPa Calm     73 % 0 mm
19:36 12.7 °C 7.6 °C 1016.1 hPa Calm     71 % 0 mm
19:41 12.5 °C 7.6 °C 1016.5 hPa Calm     72 % 0 mm
19:46 12.2 °C 7.5 °C 1016.5 hPa Calm     73 % 0 mm
19:51 11.9 °C 7.4 °C 1016.5 hPa Calm     74 % 0 mm
19:56 11.8 °C 7.5 °C 1016.5 hPa Calm     75 % 0 mm
20:01 11.8 °C 7.1 °C 1016.5 hPa Calm     73 % 0 mm
20:06 12.1 °C 7.2 °C 1016.8 hPa Calm     72 % 0 mm
20:11 12.2 °C 6.7 °C 1016.8 hPa Calm     69 % 0 mm
20:16 12.4 °C 6.4 °C 1016.8 hPa Calm     67 % 0 mm
20:21 12.3 °C 6.6 °C 1016.8 hPa Calm     68 % 0 mm
20:26 12.1 °C 6.6 °C 1017.2 hPa Calm     69 % 0 mm
20:31 11.7 °C 6.4 °C 1017.2 hPa Calm     70 % 0 mm
20:36 11.2 °C 6.8 °C 1017.5 hPa Calm     74 % 0 mm
20:41 11.1 °C 6.6 °C 1017.5 hPa Calm     74 % 0 mm
20:46 10.8 °C 6.6 °C 1017.5 hPa Calm     75 % 0 mm
20:51 10.4 °C 6.6 °C 1017.8 hPa Calm     77 % 0 mm
20:56 10.3 °C 6.7 °C 1017.8 hPa Calm     78 % 0 mm
21:01 10.3 °C 6.4 °C 1017.8 hPa Calm     77 % 0 mm
21:06 10.2 °C 6.6 °C 1017.8 hPa Calm     78 % 0 mm
21:11 10.2 °C 6.5 °C 1017.8 hPa Calm     78 % 0 mm
21:16 10.1 °C 6.4 °C 1018.2 hPa Calm     78 % 0 mm
21:21 9.8 °C 6.3 °C 1018.2 hPa Calm     79 % 0 mm
21:26 9.6 °C 6.3 °C 1018.2 hPa Calm     80 % 0 mm
21:31 9.4 °C 6.4 °C 1018.2 hPa Calm     82 % 0 mm
21:36 9.5 °C 6.6 °C 1018.2 hPa Calm     82 % 0 mm
21:41 9.5 °C 6.4 °C 1018.2 hPa Calm     81 % 0 mm
21:46 9.4 °C 6.4 °C 1018.2 hPa Calm     82 % 0 mm
21:51 9.3 °C 6.6 °C 1018.2 hPa Calm     83 % 0 mm
21:56 9.4 °C 6.7 °C 1018.2 hPa Calm     83 % 0 mm
22:01 9.4 °C 6.7 °C 1018.2 hPa Calm     83 % 0 mm
22:06 9.4 °C 6.7 °C 1018.2 hPa Calm     83 % 0 mm
22:11 9.4 °C 6.7 °C 1018.2 hPa Calm     83 % 0 mm
22:16 9.4 °C 6.7 °C 1018.2 hPa Calm     83 % 0 mm
22:21 9.4 °C 6.7 °C 1018.2 hPa Calm     83 % 0 mm
22:26 9.3 °C 6.4 °C 1018.2 hPa Calm     82 % 0 mm
22:31 9.3 °C 6.4 °C 1018.2 hPa Calm     82 % 0 mm
22:36 9.2 °C 6.3 °C 1018.2 hPa Calm     82 % 0 mm
22:41 9.2 °C 6.4 °C 1018.2 hPa Calm     83 % 0 mm
22:46 9.2 °C 6.4 °C 1017.8 hPa Calm     83 % 0 mm
22:51 9.2 °C 6.5 °C 1017.8 hPa Calm     83 % 0 mm
22:56 9.3 °C 6.2 °C 1018.2 hPa Calm     81 % 0 mm
23:01 9.1 °C 5.8 °C 1018.2 hPa Calm     80 % 0 mm
23:06 8.5 °C 5.4 °C 1018.2 hPa Calm     81 % 0 mm
23:11 8.1 °C 5.2 °C 1018.2 hPa Calm     82 % 0 mm
23:16 7.9 °C 5.2 °C 1018.2 hPa Calm     83 % 0 mm
23:21 7.8 °C 5.4 °C 1018.2 hPa Calm     85 % 0 mm
23:26 7.7 °C 5.5 °C 1018.2 hPa Calm     86 % 0 mm
23:31 7.7 °C 5.5 °C 1018.2 hPa Calm     86 % 0 mm
23:36 7.7 °C 5.5 °C 1017.8 hPa Calm     86 % 0 mm
23:41 7.7 °C 5.5 °C 1018.2 hPa Calm     86 % 0 mm
23:46 7.6 °C 5.4 °C 1018.2 hPa Calm     86 % 0 mm
23:51 7.7 °C 5.5 °C 1018.2 hPa Calm     86 % 0 mm
23:56 7.7 °C 5.5 °C 1018.2 hPa Calm     86 % 0 mm
Park Place, Exeter, Tulare County, California, USA
Compliments of Weather Underground - 2.75 mb